Cliffe, United Kingdom
Current Conditions -  °F | °C
As of 1:20 PM on Monday 22 Dec 2014 (Local Time) from EGMC Reporting Station
Broken Clouds Broken Clouds  
Wind Chill: 57°   Ceiling: 2300
Heat Index: 57°   Visibility: 6mi
Dew Point: 46°   Wind: 21mph
Humidity: 67%   Direction: 240°WSW
Pressure: 30"   Gusts: 32mph
Location:  51.46°N, 0.5°E
Report Text: EGMC 221320Z 24018G28KT 9999 BKN023 14/08 Q1016
Loading
Personal Weather Stations






























Interactive Weather Map New forecast layout! Learn more

10-Day Weather Forecast

Advertisements
Track Severe Weather on mobile